Time;durP1;ratioP1;P1;durP2;ratioP2;P2;SDS_P1;SDS_P2;PMS_P1;PMS_P2;Temp;Humidity;BMP_temperature;BMP_pressure;BME280_temperature;BME280_humidity;BME280_pressure;Samples;Min_cycle;Max_cycle;Signal;HPM_P1;HPM_P2
2022/06/26 00:00:14;;;;;;;15.33;14.10;;;18.80;99.90;;;;;;4986665;28;20436;-82
2022/06/26 00:02:39;;;;;;;16.15;14.75;;;18.80;99.90;;;;;;4982683;28;20479;-83
2022/06/26 00:05:07;;;;;;;16.83;15.43;;;18.80;99.90;;;;;;4984914;28;20385;-82
2022/06/26 00:07:35;;;;;;;16.80;15.07;;;18.80;99.90;;;;;;4988448;28;20397;-83
2022/06/26 00:10:01;;;;;;;16.30;14.70;;;18.70;99.90;;;;;;4983693;28;20385;-82
2022/06/26 00:12:27;;;;;;;14.80;13.60;;;18.60;99.90;;;;;;4985178;28;20409;-82
2022/06/26 00:14:52;;;;;;;15.30;14.00;;;18.60;99.90;;;;;;4979380;28;20401;-82
2022/06/26 00:17:18;;;;;;;17.65;16.15;;;18.60;99.90;;;;;;4980771;28;20396;-83
2022/06/26 00:19:44;;;;;;;17.57;16.07;;;18.60;99.90;;;;;;4985579;28;20824;-83
2022/06/26 00:22:09;;;;;;;18.70;17.10;;;18.50;99.90;;;;;;4988321;28;20389;-83
2022/06/26 00:24:37;;;;;;;16.73;15.40;;;18.60;99.90;;;;;;4988316;28;20464;-82
2022/06/26 00:27:06;;;;;;;16.38;15.07;;;18.50;99.90;;;;;;4988567;28;20439;-82
2022/06/26 00:29:32;;;;;;;15.70;14.50;;;18.50;99.90;;;;;;4988981;28;20389;-82
2022/06/26 00:31:58;;;;;;;15.95;14.60;;;18.50;99.90;;;;;;4989942;28;20412;-82
2022/06/26 00:34:24;;;;;;;15.10;13.82;;;18.50;99.90;;;;;;4993048;28;20456;-82
2022/06/26 00:36:49;;;;;;;15.35;14.13;;;18.50;99.90;;;;;;4991642;28;20391;-83
2022/06/26 00:39:15;;;;;;;15.97;14.57;;;18.40;99.90;;;;;;4991860;28;20385;-82
2022/06/26 00:41:41;;;;;;;15.60;14.13;;;18.40;99.90;;;;;;4992855;28;20479;-82
2022/06/26 00:44:24;;;;;;;14.98;13.77;;;18.40;99.90;;;;;;4992690;28;20401;-82
2022/06/26 00:46:51;;;;;;;16.17;14.88;;;18.40;99.90;;;;;;4992805;28;20388;-82
2022/06/26 00:49:17;;;;;;;15.48;14.27;;;18.40;99.90;;;;;;4992913;28;20743;-82
2022/06/26 00:51:54;;;;;;;15.50;14.20;;;18.30;99.90;;;;;;4991229;28;20404;-82
2022/06/26 00:54:21;;;;;;;15.98;14.75;;;18.40;99.90;;;;;;4992784;28;20439;-82
2022/06/26 00:56:47;;;;;;;16.13;14.82;;;18.40;99.90;;;;;;4992528;28;20392;-82
2022/06/26 00:59:13;;;;;;;15.63;14.43;;;18.30;99.90;;;;;;4992782;28;20417;-82
2022/06/26 01:01:39;;;;;;;16.98;15.50;;;18.30;99.90;;;;;;4990268;28;20503;-82
2022/06/26 01:04:05;;;;;;;15.68;14.43;;;18.30;99.90;;;;;;4990523;28;20491;-82
2022/06/26 01:06:32;;;;;;;16.45;15.00;;;18.20;99.90;;;;;;4990477;28;20465;-82
2022/06/26 01:08:59;;;;;;;15.60;14.35;;;18.20;99.90;;;;;;4992466;28;20508;-82
2022/06/26 01:11:25;;;;;;;15.77;14.50;;;18.20;99.90;;;;;;4992249;28;20440;-82
2022/06/26 01:13:53;;;;;;;15.82;14.63;;;18.10;99.90;;;;;;4992303;28;20388;-82
2022/06/26 01:16:21;;;;;;;15.35;14.02;;;18.10;99.90;;;;;;4991787;28;20396;-82
2022/06/26 01:18:49;;;;;;;15.60;14.40;;;18.10;99.90;;;;;;4992293;28;20739;-82
2022/06/26 01:21:17;;;;;;;14.98;13.75;;;18.10;99.90;;;;;;4990897;28;20905;-82
2022/06/26 01:23:42;;;;;;;17.83;16.25;;;18.10;99.90;;;;;;4992246;28;20377;-82
2022/06/26 01:26:08;;;;;;;16.60;15.20;;;18.10;99.90;;;;;;4990932;28;20944;-82
2022/06/26 01:28:34;;;;;;;16.50;15.10;;;18.10;99.90;;;;;;4985512;28;20422;-82
2022/06/26 01:30:59;;;;;;;16.33;15.02;;;18.00;99.90;;;;;;4986972;28;20495;-82
2022/06/26 01:33:25;;;;;;;15.47;14.20;;;18.00;99.90;;;;;;4990242;28;20476;-82
2022/06/26 01:35:51;;;;;;;17.52;16.13;;;17.90;99.90;;;;;;4972486;28;20375;-82
2022/06/26 01:38:22;;;;;;;15.47;14.13;;;18.00;99.90;;;;;;4977805;28;20447;-82
2022/06/26 01:40:50;;;;;;;16.35;14.95;;;18.00;99.90;;;;;;4991823;28;20448;-82
2022/06/26 01:43:23;;;;;;;16.33;15.02;;;18.00;99.90;;;;;;4988248;28;20397;-82
2022/06/26 01:45:51;;;;;;;16.67;15.38;;;17.90;99.90;;;;;;4991865;28;20381;-82
2022/06/26 01:48:18;;;;;;;15.77;14.43;;;17.90;99.90;;;;;;4989390;28;20393;-82
2022/06/26 01:50:44;;;;;;;16.65;15.30;;;18.00;99.90;;;;;;4991554;28;20471;-82
2022/06/26 01:53:11;;;;;;;16.00;14.55;;;17.90;99.90;;;;;;4991486;28;20381;-82
2022/06/26 01:55:38;;;;;;;15.85;14.55;;;17.80;99.90;;;;;;4991516;28;20756;-82
2022/06/26 01:58:04;;;;;;;14.60;13.50;;;17.80;99.90;;;;;;4990198;28;20389;-81
2022/06/26 02:00:31;;;;;;;14.80;13.60;;;17.80;99.90;;;;;;4990979;28;20408;-82
2022/06/26 02:02:57;;;;;;;15.60;14.30;;;17.80;99.90;;;;;;4989374;28;20480;-82
2022/06/26 02:05:23;;;;;;;16.30;14.98;;;17.80;99.90;;;;;;4990833;28;20460;-82
2022/06/26 02:07:49;;;;;;;15.75;14.55;;;17.70;99.90;;;;;;4991440;28;20826;-82
2022/06/26 02:15:45;;;;;;;17.98;16.48;;;17.60;99.90;;;;;;4991429;28;20424;-82
2022/06/26 02:18:12;;;;;;;17.47;15.97;;;17.60;99.90;;;;;;4991099;28;20425;-82
2022/06/26 02:20:38;;;;;;;15.93;14.55;;;17.60;99.90;;;;;;4990893;28;20406;-82
2022/06/26 02:23:04;;;;;;;16.73;15.40;;;17.50;99.90;;;;;;4991431;28;20377;-82
2022/06/26 02:25:30;;;;;;;16.92;15.55;;;17.50;99.90;;;;;;4991140;28;20381;-82
2022/06/26 02:27:55;;;;;;;16.60;15.20;;;17.60;99.90;;;;;;4991193;28;20385;-82
2022/06/26 02:30:21;;;;;;;15.15;13.98;;;17.60;99.90;;;;;;4991073;28;20456;-82
2022/06/26 02:32:47;;;;;;;13.90;12.80;;;17.60;99.90;;;;;;5005185;28;20440;-83
2022/06/26 02:35:12;;;;;;;13.83;12.63;;;17.60;99.90;;;;;;4990930;28;20381;-83
2022/06/26 02:37:39;;;;;;;14.30;13.10;;;17.70;99.90;;;;;;5005761;28;20890;-84
2022/06/26 02:40:05;;;;;;;13.68;12.63;;;17.60;99.90;;;;;;5006004;28;20393;-83
2022/06/26 02:42:31;;;;;;;14.27;13.18;;;17.60;99.90;;;;;;4990655;28;20444;-83
2022/06/26 02:44:57;;;;;;;15.05;13.85;;;17.60;99.90;;;;;;4990516;28;20405;-83
2022/06/26 02:47:22;;;;;;;15.47;14.20;;;17.60;99.90;;;;;;4990747;28;20868;-82
2022/06/26 02:49:48;;;;;;;15.60;14.35;;;17.50;99.90;;;;;;4990460;28;20393;-83
2022/06/26 02:52:14;;;;;;;16.40;15.10;;;17.50;99.90;;;;;;4989056;28;20420;-83
2022/06/26 02:54:39;;;;;;;18.42;16.77;;;17.50;99.90;;;;;;4990222;28;20377;-82
2022/06/26 02:57:05;;;;;;;17.33;15.90;;;17.50;99.90;;;;;;4990557;28;20883;-82
2022/06/26 02:59:31;;;;;;;16.85;15.45;;;17.60;99.90;;;;;;4990264;28;20385;-82
2022/06/26 03:01:57;;;;;;;16.45;15.15;;;17.60;99.90;;;;;;4989675;28;21043;-83
2022/06/26 03:04:23;;;;;;;14.82;13.68;;;17.70;99.90;;;;;;4989054;28;20389;-82
2022/06/26 03:06:49;;;;;;;16.23;14.90;;;17.70;99.90;;;;;;4990595;28;20392;-82
2022/06/26 03:09:15;;;;;;;14.70;13.50;;;17.70;99.90;;;;;;4987121;28;20384;-83
2022/06/26 03:11:41;;;;;;;13.87;12.83;;;17.70;99.90;;;;;;4989796;28;20409;-82
2022/06/26 03:14:07;;;;;;;14.95;13.80;;;17.70;99.90;;;;;;4988927;28;20389;-83
2022/06/26 03:16:34;;;;;;;15.40;14.18;;;17.70;99.90;;;;;;4988815;28;20388;-82
2022/06/26 03:18:59;;;;;;;14.70;13.50;;;17.70;99.90;;;;;;4989810;28;20393;-82
2022/06/26 03:21:25;;;;;;;14.70;13.20;;;17.70;99.90;;;;;;4989759;28;20902;-82
2022/06/26 03:24:03;;;;;;;13.82;11.90;;;17.70;99.90;;;;;;4990278;28;20381;-83
2022/06/26 03:26:30;;;;;;;13.82;12.73;;;17.80;99.90;;;;;;4988994;28;20388;-82
2022/06/26 03:28:57;;;;;;;14.40;13.30;;;17.90;99.90;;;;;;4988469;28;20410;-83
2022/06/26 03:31:22;;;;;;;13.50;12.43;;;17.90;99.90;;;;;;4989669;28;20492;-83
2022/06/26 03:33:48;;;;;;;13.70;12.50;;;18.00;99.90;;;;;;4989859;28;20472;-84
2022/06/26 03:36:14;;;;;;;14.73;13.52;;;18.00;99.90;;;;;;4990123;28;20855;-82
2022/06/26 03:38:40;;;;;;;14.45;13.25;;;18.10;99.90;;;;;;4988510;28;20400;-83
2022/06/26 03:41:06;;;;;;;13.97;12.73;;;18.10;99.90;;;;;;4989418;28;20391;-84
2022/06/26 03:43:31;;;;;;;13.80;12.60;;;18.10;99.90;;;;;;4988161;28;20886;-83
2022/06/26 03:45:57;;;;;;;14.25;13.13;;;18.20;99.90;;;;;;4989888;28;20427;-83
2022/06/26 03:48:23;;;;;;;13.50;12.40;;;18.30;99.90;;;;;;4989911;28;20954;-84
2022/06/26 03:50:49;;;;;;;12.75;11.75;;;18.40;99.90;;;;;;4989621;28;20780;-84
2022/06/26 03:53:14;;;;;;;13.10;12.00;;;18.50;99.90;;;;;;4990011;28;20373;-83
2022/06/26 03:55:40;;;;;;;13.90;12.80;;;18.50;99.90;;;;;;4990108;28;20373;-82
2022/06/26 03:58:05;;;;;;;12.40;11.40;;;18.60;99.90;;;;;;4989905;28;20397;-83
2022/06/26 04:00:31;;;;;;;13.27;12.13;;;18.70;99.90;;;;;;4990134;28;20388;-82
2022/06/26 04:02:57;;;;;;;11.80;10.90;;;18.80;99.90;;;;;;4989427;28;20393;-82
2022/06/26 04:05:23;;;;;;;11.57;10.70;;;18.80;99.90;;;;;;4989606;28;20380;-82
2022/06/26 04:07:49;;;;;;;12.25;11.25;;;18.90;99.90;;;;;;4989543;28;20381;-81
2022/06/26 04:10:14;;;;;;;12.33;11.33;;;19.00;99.90;;;;;;4989446;28;20381;-82
2022/06/26 04:12:40;;;;;;;13.93;12.73;;;19.00;99.90;;;;;;4989474;28;20954;-82
2022/06/26 04:15:06;;;;;;;13.17;12.17;;;19.00;99.90;;;;;;4989953;28;20381;-81
2022/06/26 04:17:32;;;;;;;10.90;10.00;;;19.10;99.90;;;;;;4989190;28;20413;-82
2022/06/26 04:19:58;;;;;;;14.30;13.18;;;19.10;99.90;;;;;;4989358;28;20466;-82
2022/06/26 04:22:23;;;;;;;12.93;11.83;;;19.20;99.90;;;;;;4988049;28;20523;-82
2022/06/26 04:24:49;;;;;;;15.20;13.93;;;19.10;99.90;;;;;;4989221;28;20393;-82
2022/06/26 04:27:15;;;;;;;15.90;14.60;;;19.20;99.90;;;;;;4989346;28;20389;-81
2022/06/26 04:29:41;;;;;;;15.43;14.13;;;19.30;99.90;;;;;;4989188;28;20373;-81
2022/06/26 04:32:07;;;;;;;16.08;14.60;;;19.40;99.90;;;;;;4987459;28;20412;-81
2022/06/26 04:34:33;;;;;;;15.68;14.27;;;19.60;99.90;;;;;;4988870;28;20404;-80
2022/06/26 04:36:58;;;;;;;20.23;18.53;;;19.60;99.90;;;;;;4989331;28;20373;-81
2022/06/26 04:39:24;;;;;;;17.40;15.95;;;19.70;99.90;;;;;;4989192;28;20531;-81
2022/06/26 04:41:50;;;;;;;20.37;18.67;;;19.70;99.90;;;;;;4987567;28;20385;-81
2022/06/26 04:44:17;;;;;;;22.13;20.33;;;19.80;99.90;;;;;;4988971;28;21103;-81
2022/06/26 04:46:46;;;;;;;21.58;19.73;;;19.90;99.90;;;;;;4988031;28;20886;-81
2022/06/26 04:49:13;;;;;;;20.90;19.10;;;20.00;99.90;;;;;;4989443;28;20384;-81
2022/06/26 04:51:39;;;;;;;22.13;20.25;;;20.00;99.90;;;;;;4988893;28;20567;-81
2022/06/26 04:54:05;;;;;;;21.75;19.88;;;20.10;99.90;;;;;;4988185;28;20986;-80
2022/06/26 04:56:31;;;;;;;22.27;20.40;;;20.10;99.90;;;;;;4987817;28;20831;-80
2022/06/26 04:58:57;;;;;;;22.25;20.35;;;20.10;99.90;;;;;;4987901;28;21311;-81
2022/06/26 05:01:24;;;;;;;21.50;19.60;;;20.20;99.90;;;;;;4988875;28;20749;-81
2022/06/26 05:03:50;;;;;;;22.08;20.17;;;20.30;99.90;;;;;;4988694;28;20526;-81
2022/06/26 05:06:15;;;;;;;21.02;19.27;;;20.50;99.90;;;;;;4989210;28;20428;-81
2022/06/26 05:08:41;;;;;;;17.10;15.70;;;20.50;99.90;;;;;;4989138;28;20495;-80
2022/06/26 05:11:07;;;;;;;17.70;16.30;;;20.50;99.90;;;;;;4988500;28;20428;-81
2022/06/26 05:13:32;;;;;;;19.30;17.80;;;20.50;99.90;;;;;;4989011;28;20447;-81
2022/06/26 05:15:59;;;;;;;18.85;17.33;;;20.40;99.90;;;;;;4989057;28;20890;-81
2022/06/26 05:18:24;;;;;;;18.38;16.88;;;20.50;99.90;;;;;;4992092;28;20401;-81
2022/06/26 05:20:50;;;;;;;15.00;13.65;;;20.60;99.90;;;;;;4991891;28;20391;-81
2022/06/26 05:23:16;;;;;;;16.13;14.83;;;20.70;99.90;;;;;;4990857;28;20905;-81
2022/06/26 05:25:43;;;;;;;17.23;15.73;;;20.80;99.90;;;;;;4992490;28;20423;-83
2022/06/26 05:28:09;;;;;;;15.70;14.40;;;21.00;99.90;;;;;;4992180;28;20389;-82
2022/06/26 05:30:35;;;;;;;18.85;17.20;;;21.30;99.90;;;;;;4991886;28;20384;-82
2022/06/26 05:33:01;;;;;;;16.90;15.40;;;21.50;99.90;;;;;;4990880;28;20392;-82
2022/06/26 05:35:26;;;;;;;19.17;17.38;;;21.80;99.90;;;;;;4991547;28;20901;-82
2022/06/26 05:37:52;;;;;;;16.85;15.55;;;22.10;99.90;;;;;;4992001;28;20878;-83
2022/06/26 05:40:18;;;;;;;17.95;16.45;;;22.50;99.90;;;;;;4990598;28;20935;-82
2022/06/26 05:42:44;;;;;;;18.87;17.17;;;22.80;99.90;;;;;;4991362;28;20365;-83
2022/06/26 05:45:10;;;;;;;19.90;18.00;;;23.10;99.90;;;;;;4991602;28;20411;-82
2022/06/26 05:47:36;;;;;;;17.60;16.10;;;23.40;99.90;;;;;;4991886;28;20724;-82
2022/06/26 05:50:02;;;;;;;17.50;16.00;;;23.70;99.90;;;;;;4991768;28;20471;-82
2022/06/26 05:52:28;;;;;;;16.92;15.43;;;24.10;99.90;;;;;;4991564;28;20528;-83
2022/06/26 05:54:53;;;;;;;15.97;14.63;;;24.30;99.90;;;;;;4991795;28;20472;-83
2022/06/26 05:57:19;;;;;;;16.65;15.20;;;24.50;99.90;;;;;;4990277;28;20392;-82
2022/06/26 05:59:46;;;;;;;17.50;15.97;;;24.60;99.90;;;;;;4991649;28;20373;-82
2022/06/26 06:02:12;;;;;;;17.00;15.52;;;24.70;99.90;;;;;;4990064;28;20790;-82
2022/06/26 06:04:37;;;;;;;17.47;15.97;;;24.60;99.90;;;;;;4991474;28;20400;-81
2022/06/26 06:07:04;;;;;;;17.42;16.02;;;24.60;99.90;;;;;;4991749;28;20377;-82
2022/06/26 06:09:30;;;;;;;17.27;15.88;;;24.50;99.90;;;;;;4991429;28;20380;-83
2022/06/26 06:11:56;;;;;;;16.63;15.23;;;24.50;99.90;;;;;;4989484;28;20733;-83
2022/06/26 06:14:21;;;;;;;16.75;15.25;;;24.70;99.90;;;;;;4991195;28;20464;-83
2022/06/26 06:16:47;;;;;;;16.20;14.73;;;24.80;99.90;;;;;;4991436;28;20403;-83
2022/06/26 06:19:12;;;;;;;16.23;14.60;;;25.00;99.90;;;;;;4991148;28;20423;-83
2022/06/26 06:21:38;;;;;;;15.90;14.32;;;25.50;99.90;;;;;;4991273;28;20828;-83
2022/06/26 06:24:04;;;;;;;16.30;14.60;;;25.90;99.90;;;;;;4989909;28;20379;-84
2022/06/26 06:26:29;;;;;;;16.35;14.68;;;26.30;99.90;;;;;;4991057;28;20400;-83
2022/06/26 06:28:55;;;;;;;14.30;12.93;;;26.90;99.90;;;;;;4990714;28;20431;-83
2022/06/26 06:31:21;;;;;;;13.57;12.27;;;27.40;99.90;;;;;;4990718;28;20405;-83
2022/06/26 06:33:46;;;;;;;13.87;12.17;;;27.80;99.90;;;;;;4990978;28;20388;-84
2022/06/26 06:36:12;;;;;;;13.52;12.07;;;28.10;99.90;;;;;;4989670;28;20443;-84
2022/06/26 06:38:38;;;;;;;11.82;10.65;;;28.30;99.90;;;;;;4989825;28;20413;-83
2022/06/26 06:41:04;;;;;;;13.23;11.27;;;28.60;99.90;;;;;;4990311;28;20743;-82
2022/06/26 06:43:46;;;;;;;10.40;9.05;;;29.00;99.90;;;;;;5106738;27;20364;-82
2022/06/26 06:46:12;;;;;;;9.83;8.83;;;29.40;99.90;;;;;;5105418;27;20907;-82
2022/06/26 06:48:37;;;;;;;9.70;8.70;;;29.80;99.90;;;;;;5106848;28;20794;-83
2022/06/26 06:51:04;;;;;;;9.55;8.15;;;30.00;99.90;;;;;;5106522;28;20411;-82
2022/06/26 06:53:30;;;;;;;12.60;8.55;;;29.90;99.90;;;;;;5106698;28;20395;-82
2022/06/26 06:55:55;;;;;;;9.43;8.43;;;30.00;99.90;;;;;;5106485;28;20383;-81
2022/06/26 06:58:21;;;;;;;8.52;7.72;;;29.80;99.90;;;;;;5105109;28;20371;-83
2022/06/26 07:00:47;;;;;;;8.32;7.50;;;29.90;99.90;;;;;;5104760;28;20379;-82
2022/06/26 07:03:12;;;;;;;8.23;7.50;;;30.10;99.90;;;;;;5105878;28;20399;-83
2022/06/26 07:05:38;;;;;;;8.37;7.13;;;30.50;99.90;;;;;;5104795;27;20398;-83
2022/06/26 07:08:04;;;;;;;8.55;6.18;;;30.80;99.90;;;;;;5104864;28;20372;-84
2022/06/26 07:10:30;;;;;;;6.85;5.38;;;30.80;99.90;;;;;;5106193;28;20368;-84
2022/06/26 07:12:57;;;;;;;6.00;5.40;;;30.90;99.90;;;;;;5105769;28;20417;-84
2022/06/26 07:15:24;;;;;;;7.20;5.32;;;31.10;99.90;;;;;;5106470;28;20769;-83
2022/06/26 07:17:49;;;;;;;5.63;4.72;;;31.50;99.90;;;;;;5106432;28;20433;-85
2022/06/26 07:20:15;;;;;;;6.63;4.70;;;31.60;99.90;;;;;;5104724;27;20392;-84
2022/06/26 07:22:42;;;;;;;5.38;4.88;;;31.70;99.90;;;;;;5105747;28;20399;-84
2022/06/26 07:25:08;;;;;;;4.90;4.43;;;31.70;99.90;;;;;;5105366;28;20364;-84
2022/06/26 07:27:34;;;;;;;5.20;4.75;;;31.80;99.90;;;;;;5106263;28;20372;-83
2022/06/26 07:29:59;;;;;;;4.85;4.38;;;31.80;98.80;;;;;;5104872;28;20742;-83
2022/06/26 07:32:27;;;;;;;5.43;4.73;;;31.80;99.10;;;;;;5105588;28;20861;-84
2022/06/26 07:34:53;;;;;;;5.00;4.50;;;31.60;99.00;;;;;;5105792;27;20399;-82
2022/06/26 07:37:19;;;;;;;6.43;4.40;;;31.50;98.60;;;;;;5106224;28;20367;-84
2022/06/26 07:39:45;;;;;;;5.00;4.60;;;31.20;98.70;;;;;;5106197;28;20857;-84
2022/06/26 07:42:12;;;;;;;5.22;4.70;;;31.10;98.20;;;;;;5105303;28;20415;-83
2022/06/26 07:44:37;;;;;;;6.97;4.57;;;30.90;99.40;;;;;;5105867;28;20367;-84
2022/06/26 07:47:03;;;;;;;6.70;5.20;;;30.90;99.20;;;;;;5105628;28;20399;-83
2022/06/26 07:49:29;;;;;;;5.10;4.60;;;30.90;99.40;;;;;;5104722;28;20391;-84
2022/06/26 07:51:55;;;;;;;5.32;4.82;;;30.90;99.40;;;;;;5105325;27;20471;-84
2022/06/26 07:54:21;;;;;;;5.88;5.10;;;31.00;99.30;;;;;;5095277;28;20401;-84
2022/06/26 07:56:50;;;;;;;7.97;5.63;;;31.00;98.30;;;;;;5092207;28;20457;-83
2022/06/26 07:59:16;;;;;;;6.18;5.68;;;31.00;98.40;;;;;;5091204;28;20780;-84
2022/06/26 08:01:42;;;;;;;5.82;5.32;;;30.90;97.90;;;;;;5091767;28;20483;-86
2022/06/26 08:04:09;;;;;;;5.60;5.07;;;30.90;98.50;;;;;;5092448;28;20447;-83
2022/06/26 08:06:35;;;;;;;6.55;5.85;;;31.00;97.70;;;;;;5091620;27;20384;-82
2022/06/26 08:09:01;;;;;;;5.28;4.88;;;31.00;97.80;;;;;;5091003;28;21212;-81
2022/06/26 08:11:26;;;;;;;7.30;5.80;;;31.10;97.80;;;;;;5092054;28;20857;-81
2022/06/26 08:13:52;;;;;;;7.43;5.37;;;31.20;96.80;;;;;;5092321;28;20385;-83
2022/06/26 08:16:18;;;;;;;6.40;5.80;;;31.10;96.90;;;;;;5090604;28;20389;-84
2022/06/26 08:18:44;;;;;;;5.78;5.28;;;31.00;98.50;;;;;;5092238;28;20376;-84
2022/06/26 08:23:54;;;;;;;7.60;5.50;;;30.90;97.80;;;;;;5091770;28;20394;-83
2022/06/26 08:26:20;;;;;;;5.87;5.27;;;30.90;97.90;;;;;;5090159;28;20463;-84
2022/06/26 08:28:45;;;;;;;6.15;5.65;;;31.10;96.80;;;;;;5092001;28;20883;-85
2022/06/26 08:31:11;;;;;;;6.13;5.63;;;31.10;97.10;;;;;;5091756;28;20372;-85
2022/06/26 08:33:37;;;;;;;6.50;5.97;;;31.20;97.30;;;;;;5091235;28;20383;-86
2022/06/26 08:36:04;;;;;;;6.00;5.43;;;31.40;96.80;;;;;;5089508;28;20852;-84
2022/06/26 08:38:30;;;;;;;6.32;5.82;;;31.50;97.50;;;;;;5090404;28;20376;-84
2022/06/26 08:40:58;;;;;;;6.57;5.97;;;31.50;97.50;;;;;;5090775;28;20984;-85
2022/06/26 08:43:25;;;;;;;7.10;6.47;;;31.50;97.30;;;;;;5091438;28;20412;-85
2022/06/26 08:45:55;;;;;;;6.88;6.28;;;31.50;96.90;;;;;;5089781;28;20380;-84
2022/06/26 08:48:25;;;;;;;10.43;6.30;;;31.80;95.50;;;;;;5089711;28;20475;-85
2022/06/26 08:50:51;;;;;;;6.65;5.72;;;31.90;96.60;;;;;;5091326;28;20375;-86
2022/06/26 08:53:19;;;;;;;7.10;5.65;;;32.00;96.80;;;;;;5089277;28;20388;-85
2022/06/26 08:55:45;;;;;;;5.22;4.63;;;32.10;96.10;;;;;;5110670;28;20435;-84
2022/06/26 08:58:10;;;;;;;5.32;4.82;;;31.90;94.20;;;;;;5102849;28;20467;-85
2022/06/26 09:00:37;;;;;;;5.20;4.70;;;31.80;94.30;;;;;;5090837;28;20392;-84
2022/06/26 09:03:03;;;;;;;4.90;4.50;;;31.50;94.10;;;;;;5091625;28;20467;-85
2022/06/26 09:05:28;;;;;;;5.30;4.10;;;31.50;94.00;;;;;;5088884;28;20404;-85
2022/06/26 09:07:58;;;;;;;6.63;4.65;;;31.70;93.70;;;;;;5089975;28;20434;-84
2022/06/26 09:10:27;;;;;;;5.00;4.57;;;31.80;94.30;;;;;;5096749;28;20502;-85
2022/06/26 09:12:54;;;;;;;5.07;4.68;;;31.80;93.40;;;;;;5108803;28;20379;-86
2022/06/26 09:15:22;;;;;;;7.60;4.88;;;31.80;94.00;;;;;;5108792;28;20435;-85
2022/06/26 09:17:56;;;;;;;5.88;5.13;;;31.90;94.40;;;;;;5111323;27;20390;-84
2022/06/26 09:20:22;;;;;;;8.15;5.35;;;31.80;94.20;;;;;;5111406;28;21001;-85
2022/06/26 09:22:57;;;;;;;5.13;4.30;;;31.70;93.70;;;;;;5108769;28;20884;-86
2022/06/26 09:25:33;;;;;;;4.72;4.32;;;31.80;94.50;;;;;;5109051;28;20470;-86
2022/06/26 09:28:11;;;;;;;6.13;4.80;;;32.00;93.60;;;;;;5109556;28;20494;-83
2022/06/26 09:30:46;;;;;;;4.85;4.45;;;32.20;92.90;;;;;;5109318;28;20379;-85
2022/06/26 09:33:12;;;;;;;5.28;4.78;;;32.20;93.00;;;;;;5110983;28;20819;-87
2022/06/26 09:35:37;;;;;;;5.00;4.60;;;32.40;92.60;;;;;;5110314;28;20481;-86
2022/06/26 09:38:03;;;;;;;5.60;4.57;;;32.60;93.40;;;;;;5109017;28;20784;-86
2022/06/26 09:40:29;;;;;;;4.97;4.57;;;32.90;93.70;;;;;;5110240;28;20884;-85
2022/06/26 09:42:55;;;;;;;5.18;4.63;;;33.20;92.10;;;;;;5108424;28;20407;-86
2022/06/26 09:45:21;;;;;;;5.13;4.63;;;33.00;91.00;;;;;;5108976;28;20367;-86
2022/06/26 09:47:48;;;;;;;5.07;4.67;;;32.70;92.00;;;;;;5110022;28;20481;-85
2022/06/26 09:50:14;;;;;;;5.20;4.77;;;32.70;92.20;;;;;;5110068;28;20518;-85
2022/06/26 09:52:42;;;;;;;4.95;4.50;;;32.70;91.90;;;;;;5107627;28;20391;-85
2022/06/26 09:55:09;;;;;;;4.90;4.45;;;32.70;90.20;;;;;;5109634;28;20468;-85
2022/06/26 09:57:37;;;;;;;5.10;4.45;;;32.80;92.70;;;;;;5108841;28;20710;-85
2022/06/26 10:00:06;;;;;;;5.85;4.60;;;;;;;;;;5110258;28;20451;-84
2022/06/26 10:08:06;;;;;;;5.20;4.80;;;32.80;91.20;;;;;;5109238;27;20458;-85
2022/06/26 10:10:33;;;;;;;4.65;4.28;;;32.80;92.00;;;;;;5107713;28;20375;-85
2022/06/26 10:13:05;;;;;;;4.72;4.30;;;33.10;92.00;;;;;;5108127;28;20892;-86
2022/06/26 10:15:52;;;;;;;8.25;4.55;;;33.40;90.40;;;;;;5109567;28;20382;-85
2022/06/26 10:18:45;;;;;;;5.00;4.60;;;33.60;91.00;;;;;;5108084;28;20872;-86
2022/06/26 10:21:13;;;;;;;4.97;4.57;;;33.80;89.90;;;;;;5107518;27;20469;-85
2022/06/26 10:23:40;;;;;;;4.95;4.55;;;33.20;89.30;;;;;;5105124;28;20436;-85
2022/06/26 10:26:16;;;;;;;5.00;4.50;;;;;;;;;;5090430;28;20381;-84
2022/06/26 10:29:07;;;;;;;4.75;4.35;;;33.50;90.70;;;;;;5092965;28;20370;-86
2022/06/26 10:31:43;;;;;;;5.18;4.43;;;33.60;90.40;;;;;;5105382;28;20395;-84
2022/06/26 10:34:20;;;;;;;5.43;4.50;;;33.50;89.90;;;;;;5101398;28;20789;-84
2022/06/26 10:37:04;;;;;;;5.28;4.60;;;33.50;90.50;;;;;;5100921;28;20404;-85
2022/06/26 10:39:38;;;;;;;6.25;4.75;;;33.70;89.40;;;;;;5092885;28;20905;-86
2022/06/26 10:45:04;;;;;;;7.43;5.28;;;33.80;89.50;;;;;;5109529;28;20381;-87
2022/06/26 10:47:44;;;;;;;4.93;4.43;;;33.70;88.60;;;;;;5108159;28;20876;-86
2022/06/26 10:50:36;;;;;;;4.95;4.45;;;33.80;88.40;;;;;;5107108;28;20385;-86
2022/06/26 10:53:20;;;;;;;4.93;4.53;;;33.80;87.80;;;;;;5105257;28;20371;-85
2022/06/26 10:55:57;;;;;;;7.00;4.90;;;33.30;89.30;;;;;;5099733;28;20468;-86
2022/06/26 10:58:27;;;;;;;5.32;4.90;;;33.10;90.20;;;;;;5084570;28;20877;-85
2022/06/26 11:00:58;;;;;;;4.60;4.30;;;32.80;89.00;;;;;;5086912;28;20377;-85
2022/06/26 11:03:25;;;;;;;5.20;4.78;;;32.50;88.50;;;;;;5084596;28;20405;-84
2022/06/26 11:06:01;;;;;;;5.28;4.78;;;31.80;90.00;;;;;;5088389;28;20914;-85
2022/06/26 11:08:34;;;;;;;5.28;4.80;;;31.50;91.00;;;;;;5086998;28;20536;-84
2022/06/26 11:11:07;;;;;;;5.38;4.97;;;31.60;91.10;;;;;;5087885;28;20373;-86
2022/06/26 11:13:35;;;;;;;5.63;5.13;;;31.70;91.60;;;;;;5088492;28;20392;-86
2022/06/26 11:16:03;;;;;;;5.10;4.70;;;31.70;90.80;;;;;;5086875;28;20384;-85
2022/06/26 11:18:35;;;;;;;5.50;5.00;;;31.70;91.30;;;;;;5088992;28;20968;-86
2022/06/26 11:21:02;;;;;;;5.20;4.70;;;31.60;91.00;;;;;;5089159;28;20373;-85
2022/06/26 11:23:36;;;;;;;5.35;4.60;;;31.40;91.20;;;;;;5087784;28;20499;-85
2022/06/26 11:26:08;;;;;;;9.18;5.75;;;31.30;91.40;;;;;;5088717;28;20380;-87
2022/06/26 11:28:44;;;;;;;5.20;4.80;;;31.20;91.60;;;;;;5087816;28;20416;-85
2022/06/26 11:31:19;;;;;;;6.28;5.40;;;31.10;90.30;;;;;;5107401;28;20382;-87
2022/06/26 11:33:45;;;;;;;5.43;4.95;;;31.00;91.00;;;;;;5109179;28;20473;-86
2022/06/26 11:36:15;;;;;;;7.95;5.40;;;30.80;91.00;;;;;;5104412;28;20759;-86
2022/06/26 11:38:55;;;;;;;5.35;4.85;;;30.50;91.70;;;;;;5091473;28;20404;-86
2022/06/26 11:41:23;;;;;;;5.85;5.35;;;30.60;92.10;;;;;;5079856;28;20386;-86
2022/06/26 11:43:52;;;;;;;5.90;5.30;;;30.80;91.20;;;;;;5079291;28;20404;-86
2022/06/26 11:46:19;;;;;;;5.68;5.18;;;31.00;91.30;;;;;;5108360;28;20791;-86
2022/06/26 11:48:45;;;;;;;5.63;5.15;;;30.90;90.60;;;;;;5107333;28;20467;-85
2022/06/26 11:51:13;;;;;;;5.43;4.93;;;30.70;90.90;;;;;;5090338;28;20463;-85
2022/06/26 11:53:43;;;;;;;5.63;5.13;;;30.60;90.90;;;;;;5090130;28;20400;-86
2022/06/26 11:56:08;;;;;;;6.55;5.40;;;30.40;91.10;;;;;;5091993;28;20369;-86
2022/06/26 11:58:35;;;;;;;5.40;4.90;;;30.30;91.80;;;;;;5090506;28;20387;-86
2022/06/26 12:01:10;;;;;;;5.30;4.90;;;30.40;92.60;;;;;;5092489;28;20907;-86
2022/06/26 12:03:46;;;;;;;5.10;4.68;;;31.00;91.20;;;;;;5087898;28;20408;-86
2022/06/26 12:06:12;;;;;;;5.47;4.47;;;31.40;91.00;;;;;;5089647;28;20376;-84
2022/06/26 12:08:37;;;;;;;4.55;4.22;;;31.80;90.30;;;;;;5091635;28;20908;-87
2022/06/26 12:11:05;;;;;;;5.55;4.47;;;32.10;87.70;;;;;;5089423;28;20484;-86
2022/06/26 12:13:33;;;;;;;4.78;4.38;;;32.30;90.10;;;;;;5093042;28;20433;-86
2022/06/26 12:16:08;;;;;;;4.28;3.97;;;32.70;88.80;;;;;;5091395;28;20415;-86
2022/06/26 12:18:35;;;;;;;5.55;4.32;;;32.80;87.00;;;;;;5089384;28;20396;-86
2022/06/26 12:21:01;;;;;;;4.20;3.90;;;33.00;88.90;;;;;;5090023;28;20904;-87
2022/06/26 12:23:36;;;;;;;4.67;4.27;;;33.20;86.50;;;;;;5100330;28;20415;-85
2022/06/26 12:26:09;;;;;;;4.50;4.10;;;33.30;85.40;;;;;;5096524;28;20394;-87
2022/06/26 12:28:49;;;;;;;4.15;3.85;;;33.40;84.60;;;;;;5089358;28;20877;-86
2022/06/26 12:31:16;;;;;;;3.95;3.60;;;33.30;82.70;;;;;;5088894;28;20920;-87
2022/06/26 12:33:42;;;;;;;6.13;4.43;;;33.10;83.60;;;;;;5091134;28;20376;-85
2022/06/26 12:36:08;;;;;;;4.33;3.93;;;33.00;85.90;;;;;;5089535;28;20388;-85
2022/06/26 12:38:36;;;;;;;4.63;4.13;;;33.00;85.70;;;;;;5091523;28;20497;-87
2022/06/26 12:41:03;;;;;;;4.22;3.90;;;33.00;85.20;;;;;;5091561;28;20422;-86
2022/06/26 12:43:29;;;;;;;4.63;3.78;;;33.00;86.10;;;;;;5089232;28;20400;-86
2022/06/26 12:45:55;;;;;;;3.90;3.60;;;32.90;85.90;;;;;;5089048;28;20434;-87
2022/06/26 12:48:20;;;;;;;4.40;3.60;;;32.90;84.00;;;;;;5071332;28;20404;-85
2022/06/26 12:50:46;;;;;;;3.93;3.53;;;32.80;86.50;;;;;;5069173;28;20414;-86
2022/06/26 12:53:12;;;;;;;3.65;3.35;;;32.60;83.50;;;;;;5070845;28;20405;-86